createdAt,value
2023-11-19T00:00:53.570Z,61.90
2023-11-19T00:02:26.436Z,61.71
2023-11-19T00:03:59.051Z,61.64
2023-11-19T00:05:31.493Z,62.20
2023-11-19T00:07:05.964Z,61.89
2023-11-19T00:08:38.191Z,62.18
2023-11-19T00:10:15.282Z,62.06
2023-11-19T00:11:54.539Z,61.70
2023-11-19T00:13:27.549Z,62.17
2023-11-19T00:14:59.960Z,61.66
2023-11-19T00:16:35.066Z,61.73
2023-11-19T00:18:07.419Z,61.53
2023-11-19T00:19:39.737Z,61.59
2023-11-19T00:21:12.179Z,61.47
2023-11-19T00:24:20.184Z,61.88
2023-11-19T00:25:52.337Z,61.72
2023-11-19T00:34:01.683Z,61.78
2023-11-19T00:38:11.517Z,61.50
2023-11-19T00:39:45.172Z,61.69
2023-11-19T00:41:18.415Z,61.88
2023-11-19T00:42:50.809Z,61.84
2023-11-19T00:44:25.204Z,61.52
2023-11-19T00:45:57.437Z,61.76
2023-11-19T00:47:29.714Z,61.88
2023-11-19T00:49:02.641Z,61.82
2023-11-19T00:50:37.959Z,61.79
2023-11-19T00:52:10.771Z,61.48
2023-11-19T00:53:43.031Z,61.69
2023-11-19T00:55:15.268Z,61.51
2023-11-19T00:56:47.598Z,61.76
2023-11-19T00:58:19.855Z,61.83
2023-11-19T00:59:52.144Z,61.92
2023-11-19T01:01:24.605Z,61.77
2023-11-19T01:02:57.019Z,61.84
2023-11-19T01:04:29.644Z,61.86
2023-11-19T01:06:03.956Z,61.70
2023-11-19T01:07:36.149Z,61.83
2023-11-19T01:09:10.176Z,61.78
2023-11-19T01:10:42.369Z,62.01
2023-11-19T01:12:14.565Z,61.92
2023-11-19T01:13:46.796Z,61.85
2023-11-19T01:15:20.585Z,61.78
2023-11-19T01:16:53.033Z,61.89
2023-11-19T01:18:25.266Z,61.99
2023-11-19T01:19:57.592Z,61.91
2023-11-19T01:21:29.834Z,62.04
2023-11-19T01:23:02.155Z,62.09
2023-11-19T01:24:34.464Z,61.99
2023-11-19T01:26:06.986Z,61.95
2023-11-19T01:27:39.454Z,62.19
2023-11-19T01:29:11.693Z,62.31
2023-11-19T01:30:43.954Z,62.11
2023-11-19T01:32:16.176Z,62.13
2023-11-19T01:33:48.393Z,62.40
2023-11-19T01:35:20.792Z,62.07
2023-11-19T01:36:53.067Z,62.27
2023-11-19T01:38:25.249Z,62.29
2023-11-19T01:39:59.314Z,62.17
2023-11-19T01:41:37.309Z,61.92
2023-11-19T01:43:13.059Z,62.17
2023-11-19T01:44:57.317Z,61.81
2023-11-19T01:46:30.337Z,61.83
2023-11-19T01:48:08.040Z,61.86
2023-11-19T01:49:40.316Z,62.06
2023-11-19T01:51:14.251Z,61.96
2023-11-19T01:52:46.435Z,62.04
2023-11-19T01:54:18.688Z,62.07
2023-11-19T01:55:51.137Z,62.13
2023-11-19T01:57:24.310Z,61.93
2023-11-19T01:58:57.568Z,61.84
2023-11-19T02:00:30.024Z,61.96
2023-11-19T02:02:02.557Z,61.88
2023-11-19T02:03:35.915Z,61.76
2023-11-19T02:05:08.771Z,61.84
2023-11-19T02:06:42.450Z,61.86
2023-11-19T02:08:15.347Z,61.95
2023-11-19T02:09:47.582Z,62.29
2023-11-19T02:11:19.810Z,62.08
2023-11-19T02:12:53.127Z,62.04
2023-11-19T02:14:27.250Z,61.73
2023-11-19T02:16:00.031Z,61.89
2023-11-19T02:17:41.743Z,62.01
2023-11-19T02:19:14.074Z,62.15
2023-11-19T02:20:50.863Z,62.26
2023-11-19T02:22:23.844Z,61.94
2023-11-19T02:24:08.661Z,62.11
2023-11-19T02:25:42.134Z,62.10
2023-11-19T02:27:21.991Z,62.13
2023-11-19T02:28:54.184Z,62.28
2023-11-19T02:30:30.179Z,62.21
2023-11-19T02:32:04.955Z,62.18
2023-11-19T02:33:39.178Z,62.42
2023-11-19T02:35:13.827Z,62.23
2023-11-19T02:36:45.985Z,62.36
2023-11-19T02:38:18.454Z,62.57
2023-11-19T02:39:50.708Z,62.25
2023-11-19T02:41:22.858Z,62.24
2023-11-19T02:42:57.211Z,62.21
2023-11-19T02:47:46.496Z,62.02
2023-11-19T02:49:18.831Z,62.02
2023-11-19T02:50:51.157Z,62.21
2023-11-19T02:52:23.423Z,62.04
2023-11-19T02:53:55.709Z,61.99
2023-11-19T02:55:29.819Z,61.86
2023-11-19T02:57:05.141Z,61.60
2023-11-19T02:58:37.251Z,61.70
2023-11-19T03:00:13.857Z,61.53
2023-11-19T03:01:51.701Z,61.75
2023-11-19T03:03:24.543Z,61.57
2023-11-19T03:04:57.596Z,61.45
2023-11-19T03:06:30.342Z,61.42
2023-11-19T03:08:02.920Z,61.52
2023-11-19T03:09:38.123Z,61.19
2023-11-19T03:11:13.286Z,61.18
2023-11-19T03:12:46.944Z,61.41
2023-11-19T03:14:19.998Z,61.25
2023-11-19T03:15:52.943Z,61.27
2023-11-19T03:17:25.867Z,61.60
2023-11-19T03:18:58.247Z,61.24
2023-11-19T03:20:31.756Z,61.13
2023-11-19T03:22:03.945Z,61.15
2023-11-19T03:23:36.863Z,61.37
2023-11-19T03:25:10.173Z,61.06
2023-11-19T03:26:44.307Z,61.35
2023-11-19T03:28:16.446Z,61.22
2023-11-19T03:29:48.624Z,61.42
2023-11-19T03:31:21.733Z,61.43
2023-11-19T03:32:53.931Z,61.15
2023-11-19T03:34:26.116Z,61.04
2023-11-19T03:35:58.485Z,61.02
2023-11-19T03:37:30.786Z,61.24
2023-11-19T03:39:03.019Z,61.16
2023-11-19T03:40:35.226Z,61.05
2023-11-19T03:42:07.441Z,61.24
2023-11-19T03:43:40.015Z,61.02
2023-11-19T03:45:12.441Z,61.11
2023-11-19T03:46:44.720Z,61.24
2023-11-19T03:48:20.525Z,61.35
2023-11-19T03:49:53.403Z,61.26
2023-11-19T03:51:25.673Z,61.37
2023-11-19T03:52:58.364Z,61.18
2023-11-19T03:54:30.667Z,61.37
2023-11-19T03:56:02.982Z,61.44
2023-11-19T03:59:14.122Z,61.32
2023-11-19T04:00:46.444Z,61.07
2023-11-19T04:02:18.837Z,61.24
2023-11-19T04:03:51.634Z,61.09
2023-11-19T04:05:24.093Z,61.19
2023-11-19T04:06:56.463Z,61.45
2023-11-19T04:08:28.671Z,61.48
2023-11-19T04:10:01.085Z,61.53
2023-11-19T04:11:34.267Z,61.28
2023-11-19T04:13:06.537Z,61.24
2023-11-19T04:14:38.808Z,61.47
2023-11-19T04:16:11.212Z,61.36
2023-11-19T04:17:43.622Z,61.30
2023-11-19T04:19:15.863Z,61.39
2023-11-19T04:20:48.036Z,61.21
2023-11-19T04:22:20.510Z,61.48
2023-11-19T04:23:52.865Z,61.39
2023-11-19T04:25:27.826Z,61.62
2023-11-19T04:27:00.110Z,61.50
2023-11-19T04:28:32.680Z,61.23
2023-11-19T04:30:07.135Z,61.47
2023-11-19T04:31:39.575Z,61.51
2023-11-19T04:33:12.495Z,61.42
2023-11-19T04:34:44.905Z,61.29
2023-11-19T04:36:20.710Z,61.16
2023-11-19T04:37:52.899Z,61.34
2023-11-19T04:39:25.421Z,61.54
2023-11-19T04:40:58.842Z,61.59
2023-11-19T04:42:31.215Z,61.50
2023-11-19T04:44:03.754Z,61.57
2023-11-19T04:45:36.110Z,61.77
2023-11-19T04:47:08.404Z,61.46
2023-11-19T04:48:42.310Z,61.22
2023-11-19T04:50:14.813Z,61.16
2023-11-19T04:51:49.878Z,61.28
2023-11-19T04:53:22.135Z,61.19
2023-11-19T04:54:54.393Z,61.38
2023-11-19T04:56:27.571Z,61.16
2023-11-19T04:57:59.949Z,61.34
2023-11-19T04:59:32.177Z,61.64
2023-11-19T05:01:05.673Z,61.50
2023-11-19T05:02:37.807Z,61.14
2023-11-19T05:04:10.668Z,61.27
2023-11-19T05:05:42.988Z,61.24
2023-11-19T05:07:15.268Z,61.35
2023-11-19T05:08:47.586Z,61.31
2023-11-19T05:10:19.828Z,61.19
2023-11-19T05:11:52.481Z,61.21
2023-11-19T05:13:24.933Z,61.44
2023-11-19T05:14:57.117Z,61.03
2023-11-19T05:16:29.424Z,61.35
2023-11-19T05:18:01.718Z,61.02
2023-11-19T05:19:33.977Z,61.18
2023-11-19T05:21:06.481Z,61.00
2023-11-19T05:22:38.889Z,60.99
2023-11-19T05:24:11.213Z,61.17
2023-11-19T05:25:43.512Z,61.09
2023-11-19T05:27:15.940Z,60.97
2023-11-19T05:28:48.505Z,60.93
2023-11-19T05:30:20.930Z,61.02
2023-11-19T05:31:53.336Z,60.98
2023-11-19T05:33:25.682Z,60.97
2023-11-19T05:34:58.015Z,60.98
2023-11-19T05:36:30.469Z,60.81
2023-11-19T05:38:04.069Z,60.86
2023-11-19T05:39:36.246Z,60.88
2023-11-19T05:41:08.894Z,60.93
2023-11-19T05:42:41.276Z,60.96
2023-11-19T05:44:13.479Z,61.16
2023-11-19T05:45:45.736Z,61.35
2023-11-19T05:47:18.367Z,61.09
2023-11-19T05:48:50.759Z,61.25
2023-11-19T05:50:23.001Z,61.25
2023-11-19T05:51:57.317Z,61.35
2023-11-19T05:53:29.603Z,61.43
2023-11-19T05:55:05.978Z,61.36
2023-11-19T05:56:38.437Z,61.25
2023-11-19T05:58:13.029Z,61.27
2023-11-19T05:59:45.372Z,60.97
2023-11-19T06:01:18.199Z,60.92
2023-11-19T06:02:50.424Z,60.97
2023-11-19T06:04:22.563Z,60.90
2023-11-19T06:05:56.071Z,60.96
2023-11-19T06:07:28.148Z,60.22
2023-11-19T06:09:13.088Z,60.62
2023-11-19T06:10:52.053Z,59.96
2023-11-19T06:12:24.334Z,59.75
2023-11-19T06:13:56.579Z,59.46
2023-11-19T06:15:31.452Z,59.35
2023-11-19T06:17:06.476Z,59.23
2023-11-19T06:18:38.871Z,58.96
2023-11-19T06:20:13.498Z,58.98
2023-11-19T06:21:45.718Z,59.08
2023-11-19T06:23:18.097Z,58.97
2023-11-19T06:24:50.346Z,58.67
2023-11-19T06:26:23.723Z,58.37
2023-11-19T06:27:56.088Z,58.35
2023-11-19T06:29:28.716Z,57.75
2023-11-19T06:31:01.046Z,58.01
2023-11-19T06:32:34.276Z,57.73
2023-11-19T06:34:06.551Z,57.80
2023-11-19T06:35:38.898Z,57.89
2023-11-19T06:37:11.234Z,57.53
2023-11-19T06:38:44.111Z,57.41
2023-11-19T06:40:17.296Z,56.94
2023-11-19T06:41:49.606Z,57.00
2023-11-19T06:43:21.845Z,56.95
2023-11-19T06:44:54.086Z,56.66
2023-11-19T06:46:26.351Z,56.77
2023-11-19T06:48:00.262Z,56.80
2023-11-19T06:49:32.624Z,56.76
2023-11-19T06:51:06.760Z,56.19
2023-11-19T06:52:39.282Z,56.38
2023-11-19T06:54:11.609Z,56.02
2023-11-19T06:55:43.962Z,55.49
2023-11-19T06:57:16.305Z,56.03
2023-11-19T06:58:49.784Z,56.14
2023-11-19T07:00:21.805Z,55.35
2023-11-19T07:01:54.040Z,55.57
2023-11-19T07:03:26.542Z,55.44
2023-11-19T07:04:58.951Z,55.57
2023-11-19T07:08:08.896Z,55.61
2023-11-19T07:09:41.284Z,55.48
2023-11-19T07:11:15.521Z,55.18
2023-11-19T07:12:51.833Z,54.89
2023-11-19T07:14:25.065Z,55.39
2023-11-19T07:16:00.457Z,55.14
2023-11-19T07:17:33.169Z,55.31
2023-11-19T07:19:06.668Z,55.29
2023-11-19T07:20:39.639Z,54.86
2023-11-19T07:22:15.659Z,55.29
2023-11-19T07:23:48.451Z,55.38
2023-11-19T07:25:20.670Z,55.04
2023-11-19T07:26:53.523Z,54.33
2023-11-19T07:28:26.462Z,54.18
2023-11-19T07:29:59.327Z,53.97
2023-11-19T07:31:31.693Z,54.03
2023-11-19T07:33:05.450Z,54.10
2023-11-19T07:34:37.757Z,53.48
2023-11-19T07:36:11.346Z,53.81
2023-11-19T07:37:44.111Z,53.55
2023-11-19T07:39:16.460Z,53.63
2023-11-19T07:42:25.422Z,54.13
2023-11-19T07:43:57.807Z,53.71
2023-11-19T07:45:30.259Z,53.46
2023-11-19T07:47:02.568Z,53.44
2023-11-19T07:48:36.498Z,53.41
2023-11-19T07:50:09.182Z,53.11
2023-11-19T07:53:27.300Z,53.09
2023-11-19T07:54:59.568Z,52.88
2023-11-19T07:56:32.914Z,52.88
2023-11-19T07:58:05.237Z,53.16
2023-11-19T07:59:37.934Z,53.12
2023-11-19T08:01:10.952Z,52.98
2023-11-19T08:02:43.316Z,52.79
2023-11-19T08:04:15.690Z,52.47
2023-11-19T08:05:48.139Z,52.59
2023-11-19T08:07:26.277Z,52.79
2023-11-19T08:08:58.460Z,52.63
2023-11-19T08:10:31.040Z,52.64
2023-11-19T08:12:03.496Z,52.44
2023-11-19T08:13:35.748Z,52.12
2023-11-19T08:15:08.699Z,52.40
2023-11-19T08:16:41.762Z,52.53
2023-11-19T08:18:14.446Z,51.90
2023-11-19T08:19:46.799Z,51.88
2023-11-19T08:21:19.156Z,51.83
2023-11-19T08:22:51.526Z,52.04
2023-11-19T08:24:24.312Z,51.80
2023-11-19T08:25:57.114Z,52.22
2023-11-19T08:27:29.370Z,51.80
2023-11-19T08:29:01.674Z,51.85
2023-11-19T08:30:34.025Z,51.83
2023-11-19T08:32:08.034Z,52.20
2023-11-19T08:33:40.568Z,51.14
2023-11-19T08:35:12.905Z,51.27
2023-11-19T08:36:45.345Z,51.26
2023-11-19T08:38:31.363Z,51.22
2023-11-19T08:40:06.192Z,51.36
2023-11-19T08:41:39.759Z,51.73
2023-11-19T08:43:12.382Z,51.89
2023-11-19T08:44:49.894Z,51.45
2023-11-19T08:46:22.331Z,51.03
2023-11-19T08:47:57.917Z,51.24
2023-11-19T08:49:30.168Z,50.97
2023-11-19T08:51:02.332Z,50.91
2023-11-19T08:52:35.582Z,51.35
2023-11-19T08:54:07.845Z,51.16
2023-11-19T08:55:40.274Z,50.46
2023-11-19T08:57:13.690Z,50.67
2023-11-19T08:58:45.999Z,50.25
2023-11-19T09:00:19.502Z,50.26
2023-11-19T09:01:51.694Z,50.44
2023-11-19T09:03:24.141Z,50.34
2023-11-19T09:04:56.780Z,50.29
2023-11-19T09:06:29.211Z,49.79
2023-11-19T09:08:01.869Z,49.67
2023-11-19T09:09:37.418Z,49.32
2023-11-19T09:11:13.416Z,49.83
2023-11-19T09:12:45.642Z,50.09
2023-11-19T09:14:20.040Z,49.35
2023-11-19T09:15:52.326Z,49.69
2023-11-19T09:17:24.644Z,49.96
2023-11-19T09:18:56.879Z,49.77
2023-11-19T09:20:29.206Z,49.25
2023-11-19T09:22:01.472Z,49.35
2023-11-19T09:23:38.128Z,49.34
2023-11-19T09:25:10.994Z,49.08
2023-11-19T09:26:43.322Z,49.05
2023-11-19T09:28:16.044Z,49.22
2023-11-19T09:29:50.565Z,49.28
2023-11-19T09:31:22.804Z,49.22
2023-11-19T09:32:55.184Z,49.30
2023-11-19T09:34:27.541Z,49.50
2023-11-19T09:35:59.892Z,49.36
2023-11-19T09:37:32.279Z,49.38
2023-11-19T09:39:05.879Z,48.76
2023-11-19T09:40:40.321Z,48.99
2023-11-19T09:43:52.181Z,48.11
2023-11-19T09:45:28.555Z,48.39
2023-11-19T09:47:01.067Z,48.76
2023-11-19T09:48:41.523Z,48.81
2023-11-19T09:50:20.410Z,47.84
2023-11-19T09:51:52.976Z,48.39
2023-11-19T09:53:25.490Z,47.60
2023-11-19T09:54:57.771Z,46.99
2023-11-19T09:56:31.482Z,47.09
2023-11-19T09:58:03.964Z,47.04
2023-11-19T09:59:37.946Z,47.79
2023-11-19T10:02:49.013Z,47.21
2023-11-19T10:04:24.631Z,47.31
2023-11-19T10:06:00.585Z,47.07
2023-11-19T10:07:34.272Z,47.28
2023-11-19T10:09:06.883Z,47.55
2023-11-19T10:10:39.530Z,47.99
2023-11-19T10:13:49.521Z,47.40
2023-11-19T10:15:24.008Z,46.99
2023-11-19T10:16:57.515Z,46.85
2023-11-19T10:18:29.727Z,46.74
2023-11-19T10:21:41.545Z,47.26
2023-11-19T10:24:51.876Z,46.76
2023-11-19T10:26:29.404Z,46.21
2023-11-19T10:28:02.220Z,46.38
2023-11-19T10:29:34.505Z,46.72
2023-11-19T10:31:07.437Z,46.99
2023-11-19T10:32:39.694Z,46.80
2023-11-19T10:34:28.031Z,46.19
2023-11-19T10:36:03.597Z,45.54
2023-11-19T10:37:39.385Z,45.97
2023-11-19T10:39:11.894Z,46.55
2023-11-19T10:40:44.701Z,46.86
2023-11-19T10:42:18.350Z,46.08
2023-11-19T10:43:51.193Z,46.29
2023-11-19T10:45:25.438Z,45.40
2023-11-19T10:48:34.164Z,45.55
2023-11-19T10:50:08.193Z,45.54
2023-11-19T10:51:47.598Z,45.84
2023-11-19T10:53:20.464Z,45.43
2023-11-19T10:54:55.540Z,45.34
2023-11-19T10:56:32.330Z,45.70
2023-11-19T10:58:07.622Z,45.64
2023-11-19T10:59:40.369Z,45.58
2023-11-19T11:01:20.343Z,44.80
2023-11-19T11:02:57.286Z,45.08
2023-11-19T11:04:33.110Z,45.12
2023-11-19T11:06:05.833Z,45.23
2023-11-19T11:07:41.502Z,45.50
2023-11-19T11:09:16.925Z,44.79
2023-11-19T11:11:01.628Z,44.65
2023-11-19T11:12:38.206Z,44.37
2023-11-19T11:14:13.427Z,45.03
2023-11-19T11:15:48.365Z,44.65
2023-11-19T11:17:21.326Z,44.51
2023-11-19T11:18:54.381Z,44.24
2023-11-19T11:20:27.296Z,44.36
2023-11-19T11:22:00.265Z,44.21
2023-11-19T11:24:07.165Z,44.28
2023-11-19T11:25:53.457Z,44.36
2023-11-19T11:27:50.385Z,44.55
2023-11-19T11:29:37.826Z,44.54
2023-11-19T11:31:50.189Z,44.22
2023-11-19T11:33:41.980Z,43.70
2023-11-19T11:35:29.096Z,43.90
2023-11-19T11:37:10.089Z,44.41
2023-11-19T11:38:43.326Z,43.82
2023-11-19T11:40:17.410Z,43.92
2023-11-19T11:42:18.562Z,43.94
2023-11-19T11:43:57.563Z,42.99
2023-11-19T11:45:41.133Z,43.58
2023-11-19T11:47:13.424Z,43.86
2023-11-19T11:48:48.695Z,43.93
2023-11-19T11:50:21.346Z,43.86
2023-11-19T11:52:00.219Z,43.13
2023-11-19T11:53:32.833Z,43.58
2023-11-19T11:55:10.757Z,43.19
2023-11-19T11:56:43.011Z,43.21
2023-11-19T11:58:15.993Z,43.17
2023-11-19T11:59:49.065Z,43.34
2023-11-19T12:01:22.383Z,43.32
2023-11-19T12:03:00.890Z,42.85
2023-11-19T12:04:33.704Z,42.79
2023-11-19T12:06:06.505Z,42.74
2023-11-19T12:07:41.068Z,42.52
2023-11-19T12:09:13.641Z,42.10
2023-11-19T12:10:53.684Z,42.67
2023-11-19T12:12:30.081Z,42.00
2023-11-19T12:14:04.302Z,42.50
2023-11-19T12:15:59.461Z,42.29
2023-11-19T12:17:34.944Z,42.58
2023-11-19T12:19:08.777Z,42.30
2023-11-19T12:20:41.468Z,42.02
2023-11-19T12:22:13.765Z,42.53
2023-11-19T12:23:47.529Z,42.50
2023-11-19T12:25:24.013Z,42.56
2023-11-19T12:26:58.339Z,41.88
2023-11-19T12:28:30.865Z,42.22
2023-11-19T12:30:06.601Z,41.57
2023-11-19T12:31:39.261Z,42.29
2023-11-19T12:33:12.525Z,42.03
2023-11-19T12:34:45.705Z,42.24
2023-11-19T12:36:19.647Z,42.08
2023-11-19T12:37:53.248Z,42.41
2023-11-19T12:39:25.535Z,42.05
2023-11-19T12:41:08.412Z,42.45
2023-11-19T12:42:40.958Z,42.37
2023-11-19T12:44:13.923Z,41.73
2023-11-19T12:45:46.581Z,42.22
2023-11-19T12:47:19.478Z,41.88
2023-11-19T12:48:53.220Z,42.00
2023-11-19T12:50:26.031Z,42.12
2023-11-19T12:51:58.299Z,41.42
2023-11-19T12:53:30.756Z,41.81
2023-11-19T12:55:07.946Z,42.02
2023-11-19T12:56:40.349Z,41.93
2023-11-19T12:58:12.799Z,42.20
2023-11-19T12:59:45.085Z,42.49
2023-11-19T13:01:22.123Z,41.67
2023-11-19T13:02:58.547Z,41.59
2023-11-19T13:04:34.866Z,42.13
2023-11-19T13:06:17.878Z,41.82
2023-11-19T13:07:50.519Z,42.14
2023-11-19T13:09:27.334Z,42.10
2023-11-19T13:10:59.602Z,42.32
2023-11-19T13:12:31.855Z,42.17
2023-11-19T13:14:06.559Z,42.22
2023-11-19T13:15:39.440Z,41.47
2023-11-19T13:17:15.714Z,41.84
2023-11-19T13:18:48.686Z,42.23
2023-11-19T13:20:21.826Z,42.04
2023-11-19T13:21:54.534Z,41.92
2023-11-19T13:23:27.007Z,41.41
2023-11-19T13:24:59.560Z,41.65
2023-11-19T13:26:34.765Z,41.64
2023-11-19T13:28:07.639Z,41.86
2023-11-19T13:29:40.392Z,42.20
2023-11-19T13:31:13.128Z,42.07
2023-11-19T13:32:47.782Z,42.40
2023-11-19T13:34:20.494Z,42.52
2023-11-19T13:35:54.868Z,42.29
2023-11-19T13:37:27.223Z,42.19
2023-11-19T13:39:01.245Z,43.07
2023-11-19T13:40:34.508Z,42.70
2023-11-19T13:43:42.567Z,42.87
2023-11-19T13:45:16.617Z,42.32
2023-11-19T13:46:49.218Z,42.34
2023-11-19T13:48:21.577Z,42.19
2023-11-19T13:49:54.284Z,42.30
2023-11-19T13:51:27.008Z,42.21
2023-11-19T13:52:59.323Z,42.38
2023-11-19T13:54:32.504Z,41.88
2023-11-19T13:56:05.446Z,42.05
2023-11-19T13:57:41.579Z,42.47
2023-11-19T13:59:14.303Z,42.27
2023-11-19T14:00:46.974Z,42.35
2023-11-19T14:02:19.322Z,42.36
2023-11-19T14:03:52.162Z,42.32
2023-11-19T14:07:01.016Z,42.04
2023-11-19T14:08:33.866Z,42.49
2023-11-19T14:10:12.988Z,42.66
2023-11-19T14:11:45.535Z,42.83
2023-11-19T14:13:18.170Z,42.70
2023-11-19T14:14:51.013Z,42.89
2023-11-19T14:16:23.557Z,43.30
2023-11-19T14:17:55.809Z,43.09
2023-11-19T14:19:28.816Z,43.40
2023-11-19T14:21:01.718Z,43.56
2023-11-19T14:22:34.051Z,43.52
2023-11-19T14:24:07.171Z,43.48
2023-11-19T14:25:39.726Z,43.18
2023-11-19T14:27:12.583Z,43.43
2023-11-19T14:58:27.480Z,47.63
2023-11-19T14:59:59.862Z,47.90
2023-11-19T15:01:32.486Z,48.40
2023-11-19T15:03:08.248Z,48.43
2023-11-19T15:04:41.856Z,48.46
2023-11-19T15:06:14.190Z,48.64
2023-11-19T15:07:46.463Z,48.81
2023-11-19T15:09:19.327Z,48.86
2023-11-19T15:10:51.905Z,49.09
2023-11-19T15:12:24.788Z,49.33
2023-11-19T15:13:57.587Z,50.20
2023-11-19T15:17:05.049Z,50.09
2023-11-19T15:18:37.340Z,50.22
2023-11-19T15:20:10.171Z,50.41
2023-11-19T15:21:43.447Z,50.37
2023-11-19T15:23:16.922Z,50.42
2023-11-19T15:24:49.000Z,50.09
2023-11-19T15:26:21.395Z,50.47
2023-11-19T15:27:53.631Z,50.63
2023-11-19T15:29:25.941Z,50.84
2023-11-19T15:30:58.193Z,51.10
2023-11-19T15:32:33.234Z,51.38
2023-11-19T15:34:05.568Z,51.16
2023-11-19T15:35:38.047Z,51.27
2023-11-19T15:37:10.418Z,51.63
2023-11-19T15:40:17.911Z,55.19
2023-11-19T15:41:50.264Z,55.20
2023-11-19T15:43:22.595Z,55.14
2023-11-19T15:44:54.951Z,54.27
2023-11-19T15:46:27.279Z,54.44
2023-11-19T15:47:59.950Z,55.33
2023-11-19T15:49:32.806Z,56.34
2023-11-19T15:51:05.630Z,55.74
2023-11-19T15:52:37.913Z,55.75
2023-11-19T15:54:10.190Z,56.18
2023-11-19T15:55:42.489Z,56.96
2023-11-19T15:57:15.005Z,56.73
2023-11-19T15:58:47.249Z,57.35
2023-11-19T16:00:22.828Z,58.26
2023-11-19T16:01:55.448Z,57.85
2023-11-19T16:03:28.241Z,58.20
2023-11-19T16:05:00.599Z,58.75
2023-11-19T16:06:33.669Z,58.55
2023-11-19T16:08:06.058Z,58.72
2023-11-19T16:09:39.525Z,58.42
2023-11-19T16:11:11.816Z,58.60
2023-11-19T16:12:44.177Z,59.23
2023-11-19T16:14:16.487Z,59.94
2023-11-19T16:15:49.137Z,59.81
2023-11-19T16:17:22.429Z,59.71
2023-11-19T16:18:54.970Z,60.02
2023-11-19T16:20:27.963Z,59.58
2023-11-19T16:22:11.743Z,58.35
2023-11-19T16:23:46.714Z,59.11
2023-11-19T16:25:20.270Z,59.69
2023-11-19T16:26:52.813Z,59.66
2023-11-19T16:28:25.762Z,60.11
2023-11-19T16:29:58.004Z,60.91
2023-11-19T16:31:30.376Z,61.37
2023-11-19T16:33:02.811Z,60.62
2023-11-19T16:34:43.826Z,60.50
2023-11-19T16:36:16.655Z,60.83
2023-11-19T16:37:49.170Z,61.78
2023-11-19T16:39:21.730Z,61.69
2023-11-19T16:40:54.276Z,61.50
2023-11-19T16:42:27.471Z,62.34
2023-11-19T16:44:04.401Z,62.27
2023-11-19T16:45:36.833Z,62.14
2023-11-19T16:47:09.121Z,62.43
2023-11-19T16:48:41.412Z,62.37
2023-11-19T16:50:13.838Z,62.68
2023-11-19T16:51:49.612Z,63.51
2023-11-19T16:53:21.948Z,63.75
2023-11-19T16:54:57.721Z,63.97
2023-11-19T16:56:30.196Z,64.21
2023-11-19T16:58:03.709Z,64.55
2023-11-19T16:59:35.856Z,64.25
2023-11-19T17:01:08.114Z,64.39
2023-11-19T17:04:19.045Z,64.38
2023-11-19T17:05:51.791Z,65.21
2023-11-19T17:07:26.856Z,65.88
2023-11-19T17:08:59.310Z,65.34
2023-11-19T17:10:31.656Z,65.62
2023-11-19T17:12:04.099Z,65.59
2023-11-19T17:13:37.043Z,64.99
2023-11-19T17:15:12.192Z,64.78
2023-11-19T17:16:44.737Z,64.97
2023-11-19T17:18:18.503Z,64.95
2023-11-19T17:19:51.433Z,65.73
2023-11-19T17:21:26.158Z,65.67
2023-11-19T17:22:58.754Z,65.37
2023-11-19T17:24:31.048Z,65.53
2023-11-19T17:26:03.579Z,65.13
2023-11-19T17:27:36.299Z,65.23
2023-11-19T17:29:08.667Z,65.22
2023-11-19T17:30:41.611Z,65.29
2023-11-19T17:32:14.039Z,65.58
2023-11-19T17:33:46.629Z,65.59
2023-11-19T17:35:19.537Z,65.87
2023-11-19T17:36:52.191Z,65.90
2023-11-19T17:38:27.889Z,65.87
2023-11-19T17:40:00.514Z,66.00
2023-11-19T17:41:33.185Z,66.22
2023-11-19T17:43:06.332Z,66.56
2023-11-19T17:44:42.037Z,67.22
2023-11-19T17:46:15.283Z,67.63
2023-11-19T17:47:47.866Z,66.90
2023-11-19T17:49:20.936Z,66.13
2023-11-19T17:50:57.036Z,66.91
2023-11-19T17:52:29.389Z,66.63
2023-11-19T17:54:01.653Z,65.26
2023-11-19T17:55:33.918Z,65.37
2023-11-19T17:57:06.830Z,66.14
2023-11-19T17:58:39.297Z,66.12
2023-11-19T18:00:14.989Z,66.25
2023-11-19T18:01:47.538Z,66.14
2023-11-19T18:03:21.241Z,66.83
2023-11-19T18:04:54.652Z,67.36
2023-11-19T18:06:26.915Z,68.10
2023-11-19T18:07:59.262Z,68.84
2023-11-19T18:09:31.850Z,69.28
2023-11-19T18:11:04.467Z,69.32
2023-11-19T18:12:37.811Z,69.61
2023-11-19T18:14:11.131Z,69.00
2023-11-19T18:15:43.791Z,68.53
2023-11-19T18:17:16.812Z,68.06
2023-11-19T18:18:49.283Z,67.54
2023-11-19T18:20:21.835Z,67.70
2023-11-19T18:21:54.079Z,67.65
2023-11-19T18:23:26.476Z,67.38
2023-11-19T18:25:00.215Z,67.46
2023-11-19T18:28:07.666Z,69.29
2023-11-19T18:29:41.684Z,69.23
2023-11-19T18:31:14.027Z,69.16
2023-11-19T18:32:46.887Z,68.96
2023-11-19T18:34:19.341Z,68.60
2023-11-19T18:35:52.426Z,68.27
2023-11-19T18:37:27.950Z,68.55
2023-11-19T18:39:00.541Z,68.71
2023-11-19T18:40:36.191Z,68.83
2023-11-19T18:42:08.411Z,68.79
2023-11-19T18:43:41.044Z,68.63
2023-11-19T18:45:13.402Z,68.35
2023-11-19T18:46:45.661Z,68.74
2023-11-19T18:48:17.913Z,68.76
2023-11-19T18:49:54.761Z,68.94
2023-11-19T18:51:27.974Z,69.50
2023-11-19T18:53:00.298Z,69.98
2023-11-19T18:54:33.522Z,70.85
2023-11-19T18:56:08.143Z,71.02
2023-11-19T18:57:41.260Z,71.03
2023-11-19T18:59:15.090Z,70.77
2023-11-19T19:00:47.411Z,70.73
2023-11-19T19:02:19.774Z,70.68
2023-11-19T19:03:52.268Z,70.76
2023-11-19T19:05:25.186Z,70.99
2023-11-19T19:06:58.222Z,71.28
2023-11-19T19:08:30.558Z,70.82
2023-11-19T19:10:03.974Z,69.69
2023-11-19T19:11:37.126Z,69.88
2023-11-19T19:13:09.848Z,70.56
2023-11-19T19:14:42.186Z,71.05
2023-11-19T19:16:15.172Z,71.33
2023-11-19T19:17:47.624Z,71.63
2023-11-19T19:19:19.998Z,71.69
2023-11-19T19:20:53.456Z,71.59
2023-11-19T19:22:25.716Z,71.73
2023-11-19T19:23:57.977Z,72.30
2023-11-19T19:25:30.298Z,72.77
2023-11-19T19:27:02.513Z,72.93
2023-11-19T19:28:38.849Z,73.13
2023-11-19T19:30:11.715Z,73.03
2023-11-19T19:31:44.691Z,73.50
2023-11-19T19:33:17.214Z,73.60
2023-11-19T19:34:52.259Z,73.59
2023-11-19T19:36:33.305Z,73.58
2023-11-19T19:38:05.607Z,73.40
2023-11-19T19:39:40.269Z,73.24
2023-11-19T19:41:12.514Z,73.32
2023-11-19T19:42:44.841Z,73.12
2023-11-19T19:44:17.286Z,73.34
2023-11-19T19:45:49.631Z,73.32
2023-11-19T19:47:22.553Z,73.01
2023-11-19T19:48:55.352Z,72.85
2023-11-19T19:50:27.688Z,73.04
2023-11-19T19:52:00.010Z,72.99
2023-11-19T19:55:11.566Z,72.98
2023-11-19T19:56:43.810Z,72.71
2023-11-19T19:58:19.181Z,72.59
2023-11-19T19:59:51.523Z,72.52
2023-11-19T20:01:24.797Z,72.55
2023-11-19T20:02:57.407Z,72.86
2023-11-19T20:04:29.679Z,73.14
2023-11-19T20:06:13.045Z,73.21
2023-11-19T20:07:46.385Z,73.62
2023-11-19T20:09:18.757Z,73.80
2023-11-19T20:10:53.986Z,73.54
2023-11-19T20:12:31.565Z,73.91
2023-11-19T20:14:07.361Z,73.53
2023-11-19T20:15:40.001Z,73.83
2023-11-19T20:17:15.367Z,74.23
2023-11-19T20:18:47.641Z,74.81
2023-11-19T20:20:19.897Z,74.56
2023-11-19T20:21:52.198Z,74.63
2023-11-19T20:23:24.549Z,74.51
2023-11-19T20:24:57.156Z,73.54
2023-11-19T20:26:31.874Z,73.75
2023-11-19T20:28:04.196Z,73.69
2023-11-19T20:29:36.397Z,73.49
2023-11-19T20:31:08.720Z,73.08
2023-11-19T20:32:42.329Z,72.06
2023-11-19T20:34:14.598Z,72.14
2023-11-19T20:35:47.084Z,72.70
2023-11-19T20:37:19.629Z,72.33
2023-11-19T20:38:53.129Z,72.20
2023-11-19T20:40:25.156Z,71.75
2023-11-19T20:41:57.416Z,71.75
2023-11-19T20:43:29.647Z,71.79
2023-11-19T20:45:02.925Z,71.60
2023-11-19T20:46:35.305Z,70.70
2023-11-19T20:48:07.603Z,70.76
2023-11-19T20:49:39.949Z,71.69
2023-11-19T20:51:12.283Z,71.68
2023-11-19T20:52:44.516Z,71.79
2023-11-19T20:54:16.934Z,71.64
2023-11-19T20:55:50.304Z,71.26
2023-11-19T20:57:22.577Z,71.50
2023-11-19T20:58:55.550Z,71.98
2023-11-19T21:00:27.999Z,71.85
2023-11-19T21:02:00.296Z,72.02
2023-11-19T21:03:32.707Z,72.43
2023-11-19T21:05:05.644Z,72.03
2023-11-19T21:08:14.353Z,72.36
2023-11-19T21:09:46.693Z,72.23
2023-11-19T21:11:19.184Z,72.52
2023-11-19T21:12:51.602Z,72.85
2023-11-19T21:14:23.947Z,73.06
2023-11-19T21:15:59.431Z,72.75
2023-11-19T21:17:32.910Z,72.96
2023-11-19T21:19:05.263Z,73.19